Time;durP1;ratioP1;P1;durP2;ratioP2;P2;SDS_P1;SDS_P2;PMS_P1;PMS_P2;Temp;Humidity;BMP_temperature;BMP_pressure;BME280_temperature;BME280_humidity;BME280_pressure;Samples;Min_cycle;Max_cycle;Signal;HPM_P1;HPM_P2
2020/12/17 00:00:58;;;;;;;1.60;1.10;;;10.60;98.20;;;;;;4998726;28;21004;-77
2020/12/17 00:03:24;;;;;;;1.63;1.17;;;10.60;98.20;;;;;;4999655;28;20567;-77
2020/12/17 00:05:53;;;;;;;1.63;1.20;;;10.60;98.20;;;;;;5003576;28;20537;-76
2020/12/17 00:08:20;;;;;;;1.70;1.20;;;10.60;98.20;;;;;;4999825;28;20604;-77
2020/12/17 00:10:46;;;;;;;1.60;1.20;;;10.60;98.20;;;;;;4995247;28;20497;-76
2020/12/17 00:13:15;;;;;;;1.60;1.10;;;10.60;98.20;;;;;;5000787;28;20588;-77
2020/12/17 00:15:47;;;;;;;1.60;1.10;;;10.60;98.20;;;;;;4998128;28;20501;-77
2020/12/17 00:18:13;;;;;;;1.60;1.10;;;10.70;98.20;;;;;;4999310;28;20516;-77
2020/12/17 00:20:45;;;;;;;1.70;1.20;;;10.70;98.20;;;;;;4996773;28;20462;-77
2020/12/17 00:23:14;;;;;;;1.60;1.10;;;10.70;98.20;;;;;;4999659;28;21043;-77
2020/12/17 00:25:43;;;;;;;1.60;1.10;;;10.70;98.20;;;;;;4999875;28;20836;-77
2020/12/17 00:28:12;;;;;;;1.60;1.20;;;10.70;98.20;;;;;;4998858;28;20489;-76
2020/12/17 00:30:43;;;;;;;1.60;1.20;;;10.70;98.20;;;;;;5000529;28;20490;-75
2020/12/17 00:33:15;;;;;;;1.70;1.30;;;10.70;98.20;;;;;;4996083;28;20477;-77
2020/12/17 00:35:43;;;;;;;1.60;1.17;;;10.60;98.20;;;;;;5000331;28;20568;-75
2020/12/17 00:38:14;;;;;;;1.60;1.20;;;10.70;98.20;;;;;;4998585;28;20549;-76
2020/12/17 00:40:40;;;;;;;1.67;1.20;;;10.70;98.20;;;;;;5000166;28;20474;-75
2020/12/17 00:43:10;;;;;;;1.60;1.10;;;10.60;98.20;;;;;;4993935;28;20989;-77
2020/12/17 00:45:38;;;;;;;1.60;1.10;;;10.70;98.20;;;;;;4996033;28;20459;-75
2020/12/17 00:48:09;;;;;;;1.60;1.10;;;10.70;98.20;;;;;;4999302;28;20488;-76
2020/12/17 00:50:36;;;;;;;1.67;1.17;;;10.70;98.20;;;;;;4998510;28;20501;-76
2020/12/17 00:56:31;;;;;;;1.63;1.17;;;10.60;98.20;;;;;;4990153;28;20629;-75
2020/12/17 00:59:05;;;;;;;1.80;1.57;;;10.60;98.20;;;;;;4998932;28;20520;-75
2020/12/17 01:01:45;;;;;;;2.93;2.70;;;10.60;98.20;;;;;;4997053;28;20504;-77
2020/12/17 01:04:15;;;;;;;1.60;1.00;;;10.60;98.20;;;;;;4996903;28;20480;-75
2020/12/17 01:06:41;;;;;;;1.60;1.10;;;10.60;98.20;;;;;;4997515;28;20469;-77
2020/12/17 01:09:13;;;;;;;1.60;1.20;;;10.60;98.20;;;;;;4999939;28;20492;-77
2020/12/17 01:11:40;;;;;;;1.60;1.10;;;10.60;98.20;;;;;;4998569;28;20469;-77
2020/12/17 01:14:06;;;;;;;1.70;1.20;;;10.60;98.20;;;;;;4994569;28;20462;-77
2020/12/17 01:16:38;;;;;;;1.60;1.10;;;10.60;98.20;;;;;;4997812;28;20567;-76
2020/12/17 01:19:07;;;;;;;1.70;1.30;;;10.60;98.20;;;;;;4998743;28;20536;-76
2020/12/17 01:21:34;;;;;;;1.70;1.33;;;10.60;98.20;;;;;;4998289;28;20489;-76
2020/12/17 01:24:06;;;;;;;1.63;1.20;;;10.60;98.20;;;;;;4995843;28;20454;-77
2020/12/17 01:26:33;;;;;;;1.63;1.17;;;10.60;98.20;;;;;;5005730;28;20949;-77
2020/12/17 01:28:59;;;;;;;1.60;1.10;;;10.60;98.20;;;;;;5001087;28;20485;-77
2020/12/17 01:31:28;;;;;;;1.70;1.30;;;10.60;98.20;;;;;;4997112;28;20462;-77
2020/12/17 01:33:55;;;;;;;1.60;1.10;;;10.60;98.20;;;;;;4997411;28;20494;-75
2020/12/17 01:36:22;;;;;;;1.60;1.20;;;10.60;98.20;;;;;;4995768;28;20481;-76
2020/12/17 01:38:50;;;;;;;1.60;1.10;;;10.60;98.20;;;;;;5000217;28;20512;-76
2020/12/17 01:41:21;;;;;;;1.60;1.10;;;10.60;98.20;;;;;;4996491;28;20717;-76
2020/12/17 01:43:47;;;;;;;1.60;1.20;;;10.60;98.20;;;;;;5001239;28;20465;-76
2020/12/17 01:46:15;;;;;;;1.60;1.13;;;10.60;98.20;;;;;;4999464;28;20461;-76
2020/12/17 01:48:43;;;;;;;1.60;1.10;;;10.60;98.20;;;;;;5000111;28;20496;-76
2020/12/17 01:51:14;;;;;;;1.70;1.20;;;10.60;98.20;;;;;;4996829;28;20740;-76
2020/12/17 01:53:43;;;;;;;1.60;1.10;;;10.60;98.20;;;;;;5005347;28;20453;-76
2020/12/17 01:56:13;;;;;;;1.63;1.20;;;10.60;98.20;;;;;;4997837;28;20845;-76
2020/12/17 01:58:49;;;;;;;1.60;1.10;;;10.60;98.20;;;;;;4995878;28;20481;-75
2020/12/17 02:01:21;;;;;;;1.60;1.10;;;10.70;98.20;;;;;;5003577;28;20461;-76
2020/12/17 02:03:53;;;;;;;1.60;1.20;;;10.70;98.20;;;;;;4998403;28;20914;-76
2020/12/17 02:06:20;;;;;;;1.60;1.10;;;10.60;98.20;;;;;;4999518;28;20545;-76
2020/12/17 02:08:50;;;;;;;1.63;1.10;;;10.60;98.20;;;;;;5005210;28;20481;-76
2020/12/17 02:11:22;;;;;;;1.70;1.20;;;10.70;98.20;;;;;;4998611;28;20512;-76
2020/12/17 02:13:56;;;;;;;1.60;1.20;;;10.70;98.20;;;;;;4998001;28;20490;-76
2020/12/17 02:16:32;;;;;;;1.60;1.20;;;10.70;98.20;;;;;;5002698;28;20546;-76
2020/12/17 02:19:01;;;;;;;1.60;1.10;;;10.70;98.20;;;;;;5003336;28;20535;-76
2020/12/17 02:21:28;;;;;;;1.70;1.20;;;10.70;98.20;;;;;;5002746;28;20493;-75
2020/12/17 02:23:58;;;;;;;1.67;1.20;;;10.70;98.20;;;;;;5004304;28;20468;-77
2020/12/17 02:26:25;;;;;;;1.63;1.20;;;10.70;98.20;;;;;;5003290;28;20528;-75
2020/12/17 02:28:52;;;;;;;1.70;1.30;;;10.70;98.20;;;;;;5003906;28;20544;-77
2020/12/17 02:31:18;;;;;;;1.63;1.20;;;10.70;98.20;;;;;;5000219;28;20473;-76
2020/12/17 02:33:57;;;;;;;1.60;1.20;;;10.80;98.20;;;;;;4999122;28;20466;-75
2020/12/17 02:36:24;;;;;;;1.60;1.07;;;10.80;98.20;;;;;;5003567;28;20497;-76
2020/12/17 02:38:50;;;;;;;1.60;1.07;;;10.90;98.20;;;;;;5000848;28;20479;-75
2020/12/17 02:41:20;;;;;;;1.67;1.20;;;10.90;98.20;;;;;;5000278;28;20469;-76
2020/12/17 02:43:48;;;;;;;1.80;1.60;;;10.90;98.20;;;;;;4997575;28;20539;-76
2020/12/17 02:46:19;;;;;;;1.67;1.20;;;10.80;98.20;;;;;;4998850;28;20477;-77
2020/12/17 02:48:50;;;;;;;1.60;1.10;;;10.80;98.20;;;;;;5002351;28;20511;-77
2020/12/17 02:51:22;;;;;;;1.60;1.10;;;10.80;98.20;;;;;;5002180;28;20457;-76
2020/12/17 02:53:57;;;;;;;1.70;1.20;;;10.70;98.20;;;;;;5001190;28;20463;-76
2020/12/17 02:56:24;;;;;;;1.63;1.20;;;10.70;98.20;;;;;;4999458;28;20495;-76
2020/12/17 02:59:00;;;;;;;1.60;1.10;;;10.70;98.20;;;;;;5007621;28;20473;-76
2020/12/17 03:01:29;;;;;;;1.60;1.10;;;10.70;98.20;;;;;;5001328;28;20457;-75
2020/12/17 03:03:59;;;;;;;1.60;1.10;;;10.70;98.20;;;;;;4999321;28;20470;-76
2020/12/17 03:06:45;;;;;;;1.60;1.20;;;10.70;98.20;;;;;;4997744;28;20455;-75
2020/12/17 03:09:13;;;;;;;1.67;1.20;;;10.70;98.20;;;;;;4997040;28;20569;-77
2020/12/17 03:11:39;;;;;;;1.67;1.20;;;10.70;98.20;;;;;;5000528;28;20458;-77
2020/12/17 03:14:07;;;;;;;1.63;1.13;;;10.70;98.20;;;;;;4999056;28;20473;-77
2020/12/17 03:16:33;;;;;;;1.63;1.20;;;10.70;98.20;;;;;;5002560;28;20485;-77
2020/12/17 03:19:01;;;;;;;1.60;1.10;;;10.70;98.20;;;;;;5003040;28;20605;-77
2020/12/17 03:21:29;;;;;;;1.63;1.10;;;10.70;98.20;;;;;;5000981;28;20465;-77
2020/12/17 03:23:55;;;;;;;1.90;1.60;;;10.70;98.20;;;;;;5002534;28;20457;-77
2020/12/17 03:26:22;;;;;;;1.60;1.10;;;10.70;98.20;;;;;;5004677;28;20462;-77
2020/12/17 03:28:48;;;;;;;1.60;1.10;;;10.70;98.20;;;;;;5002644;28;20489;-77
2020/12/17 03:31:21;;;;;;;1.60;1.10;;;10.70;98.20;;;;;;5000911;28;20970;-76
2020/12/17 03:33:47;;;;;;;1.60;1.10;;;10.70;98.20;;;;;;5002908;28;20462;-77
2020/12/17 03:36:14;;;;;;;1.60;1.10;;;10.70;98.20;;;;;;5002989;28;20478;-77
2020/12/17 03:38:40;;;;;;;1.60;1.10;;;10.70;98.20;;;;;;5001299;28;20477;-77
2020/12/17 03:41:12;;;;;;;1.60;1.20;;;10.70;98.20;;;;;;4990965;28;20461;-77
2020/12/17 03:44:02;;;;;;;1.60;1.10;;;10.70;98.20;;;;;;4994564;28;20520;-77
2020/12/17 03:46:35;;;;;;;1.60;1.10;;;10.70;98.20;;;;;;4996804;28;20497;-77
2020/12/17 03:49:07;;;;;;;1.60;1.10;;;10.70;98.20;;;;;;5001008;28;21006;-77
2020/12/17 03:51:42;;;;;;;1.60;1.10;;;10.70;98.20;;;;;;5001436;28;20470;-76
2020/12/17 03:54:34;;;;;;;1.60;1.10;;;10.70;98.20;;;;;;5005241;28;20465;-74
2020/12/17 03:57:01;;;;;;;3.30;3.10;;;10.70;98.20;;;;;;5000178;28;20482;-76
2020/12/17 03:59:30;;;;;;;1.70;1.13;;;10.70;98.20;;;;;;4999606;28;20496;-77
2020/12/17 04:01:58;;;;;;;1.60;1.10;;;10.70;98.20;;;;;;4999975;28;20473;-76
2020/12/17 04:04:27;;;;;;;1.60;1.10;;;10.70;98.20;;;;;;4996105;28;20458;-77
2020/12/17 04:06:54;;;;;;;1.67;1.20;;;10.70;98.20;;;;;;5001710;28;20464;-76
2020/12/17 04:09:23;;;;;;;1.60;1.10;;;10.70;98.20;;;;;;5003039;28;20497;-77
2020/12/17 04:11:49;;;;;;;1.60;1.20;;;10.70;98.20;;;;;;4997414;28;20521;-76
2020/12/17 04:14:16;;;;;;;1.63;1.20;;;10.70;98.20;;;;;;4999929;28;20468;-76
2020/12/17 04:16:47;;;;;;;1.60;1.10;;;10.70;98.20;;;;;;4995413;28;20528;-75
2020/12/17 04:19:15;;;;;;;1.63;1.10;;;10.70;98.20;;;;;;5001738;28;20615;-75
2020/12/17 04:21:43;;;;;;;1.60;1.10;;;10.80;98.20;;;;;;4997131;28;20457;-76
2020/12/17 04:24:12;;;;;;;1.67;1.20;;;10.80;98.20;;;;;;4996772;28;20461;-77
2020/12/17 04:26:41;;;;;;;1.60;1.10;;;10.80;98.20;;;;;;5006063;28;20461;-75
2020/12/17 04:29:09;;;;;;;1.60;1.20;;;10.70;98.20;;;;;;5000277;28;20770;-75
2020/12/17 04:31:36;;;;;;;1.67;1.20;;;10.70;98.20;;;;;;5002549;28;20485;-76
2020/12/17 04:34:02;;;;;;;1.63;1.20;;;10.80;98.20;;;;;;5003022;28;20466;-75
2020/12/17 04:36:30;;;;;;;1.60;1.20;;;10.70;98.20;;;;;;5001453;28;20520;-77
2020/12/17 04:38:56;;;;;;;1.60;1.17;;;10.70;98.20;;;;;;4998121;28;20489;-75
2020/12/17 04:41:27;;;;;;;1.70;1.10;;;10.70;98.20;;;;;;4995939;28;20599;-75
2020/12/17 04:43:56;;;;;;;1.63;1.20;;;10.70;98.20;;;;;;4998896;28;20461;-74
2020/12/17 04:46:25;;;;;;;1.60;1.10;;;10.60;98.20;;;;;;5000388;28;20466;-76
2020/12/17 04:48:54;;;;;;;1.60;1.10;;;10.60;98.20;;;;;;4998168;28;20493;-76
2020/12/17 04:51:29;;;;;;;1.60;1.10;;;10.60;98.20;;;;;;4995715;28;20526;-74
2020/12/17 04:54:01;;;;;;;1.60;1.10;;;10.60;98.20;;;;;;5001425;28;20595;-75
2020/12/17 04:56:30;;;;;;;1.63;1.10;;;10.50;98.20;;;;;;5002369;28;20488;-75
2020/12/17 04:59:10;;;;;;;1.60;1.10;;;10.50;98.20;;;;;;5001394;28;20485;-76
2020/12/17 05:01:50;;;;;;;1.60;1.10;;;10.50;98.20;;;;;;4993875;28;20477;-77
2020/12/17 05:04:24;;;;;;;1.60;1.10;;;10.50;98.20;;;;;;5000018;28;20741;-75
2020/12/17 05:06:54;;;;;;;1.60;1.10;;;10.50;98.20;;;;;;4999819;28;21004;-77
2020/12/17 05:09:27;;;;;;;1.63;1.20;;;10.50;98.20;;;;;;5009116;28;20564;-76
2020/12/17 05:11:56;;;;;;;1.60;1.20;;;10.50;98.20;;;;;;4996648;28;20521;-76
2020/12/17 05:14:23;;;;;;;1.63;1.10;;;10.50;98.20;;;;;;4995921;28;20469;-77
2020/12/17 05:16:52;;;;;;;1.60;1.10;;;10.50;98.20;;;;;;5000603;28;20572;-77
2020/12/17 05:19:19;;;;;;;1.60;1.13;;;10.50;98.20;;;;;;4999367;28;20695;-76
2020/12/17 05:21:49;;;;;;;1.70;1.47;;;10.50;98.20;;;;;;4996575;28;20466;-77
2020/12/17 05:24:24;;;;;;;2.33;2.13;;;10.50;98.20;;;;;;5002601;28;20697;-77
2020/12/17 05:26:58;;;;;;;1.60;1.10;;;10.50;98.20;;;;;;5000659;28;20841;-74
2020/12/17 05:29:25;;;;;;;1.60;1.20;;;10.50;98.20;;;;;;5000758;28;20485;-76
2020/12/17 05:31:54;;;;;;;1.60;1.10;;;10.50;98.20;;;;;;4999327;28;20458;-76
2020/12/17 05:34:23;;;;;;;1.60;1.10;;;10.50;98.20;;;;;;5003732;28;20462;-74
2020/12/17 05:36:50;;;;;;;1.60;1.20;;;10.40;98.20;;;;;;5000469;28;20486;-76
2020/12/17 05:39:18;;;;;;;1.60;1.20;;;10.40;98.20;;;;;;4997934;28;20508;-76
2020/12/17 05:41:49;;;;;;;1.63;1.20;;;10.40;98.20;;;;;;4997830;28;20461;-77
2020/12/17 05:44:22;;;;;;;1.60;1.10;;;10.40;98.20;;;;;;4999816;28;20516;-73
2020/12/17 05:46:53;;;;;;;1.60;1.20;;;10.40;98.20;;;;;;5004267;28;20944;-75
2020/12/17 05:49:27;;;;;;;1.80;1.60;;;10.40;98.20;;;;;;5004528;28;20507;-76
2020/12/17 05:52:11;;;;;;;1.63;1.10;;;10.40;98.20;;;;;;4997743;28;20494;-76
2020/12/17 05:54:59;;;;;;;1.60;1.10;;;10.40;98.20;;;;;;5001108;28;20874;-76
2020/12/17 05:57:33;;;;;;;1.60;1.10;;;10.50;98.20;;;;;;5003075;28;20501;-75
2020/12/17 06:00:06;;;;;;;1.60;1.10;;;10.40;98.20;;;;;;5003927;28;20567;-74
2020/12/17 06:02:53;;;;;;;1.60;1.10;;;10.40;98.20;;;;;;4998010;28;20509;-75
2020/12/17 06:05:21;;;;;;;1.60;1.20;;;10.50;98.20;;;;;;4999902;28;20489;-74
2020/12/17 06:11:02;;;;;;;1.60;1.20;;;10.40;98.20;;;;;;5000609;28;20766;-75
2020/12/17 06:13:38;;;;;;;1.60;1.10;;;10.40;98.20;;;;;;4997231;28;20466;-73
2020/12/17 06:16:10;;;;;;;1.70;1.23;;;10.40;98.20;;;;;;5001385;28;20468;-75
2020/12/17 06:18:38;;;;;;;1.67;1.20;;;10.40;98.20;;;;;;5002342;28;20493;-74
2020/12/17 06:24:08;;;;;;;1.60;1.10;;;10.40;98.20;;;;;;4996220;28;20465;-76
2020/12/17 06:26:40;;;;;;;1.63;1.20;;;10.40;98.20;;;;;;5000985;28;20896;-77
2020/12/17 06:29:17;;;;;;;1.60;1.20;;;10.30;98.20;;;;;;4995984;28;20473;-77
2020/12/17 06:31:58;;;;;;;1.60;1.10;;;10.30;98.20;;;;;;5000183;28;21052;-77
2020/12/17 06:34:36;;;;;;;1.60;1.10;;;10.30;98.20;;;;;;4992895;28;20776;-77
2020/12/17 06:37:15;;;;;;;1.70;1.20;;;10.30;98.20;;;;;;4994440;28;20480;-77
2020/12/17 06:39:52;;;;;;;1.60;1.20;;;10.30;98.20;;;;;;4999924;28;20470;-78
2020/12/17 06:42:48;;;;;;;1.60;1.20;;;10.20;98.20;;;;;;5004390;28;20453;-78
2020/12/17 06:45:24;;;;;;;1.60;1.10;;;10.20;98.20;;;;;;5022513;23;20493;-77
2020/12/17 06:47:52;;;;;;;1.60;1.20;;;10.20;98.20;;;;;;4993040;28;20552;-77
2020/12/17 06:50:23;;;;;;;1.60;1.10;;;10.10;98.20;;;;;;4985143;28;20485;-78
2020/12/17 06:53:04;;;;;;;1.60;1.10;;;10.10;98.20;;;;;;4991259;28;20523;-78
2020/12/17 06:55:42;;;;;;;1.70;1.20;;;10.10;98.20;;;;;;4992822;28;20481;-78
2020/12/17 06:58:18;;;;;;;1.60;1.10;;;10.10;98.20;;;;;;4994491;28;20962;-77
2020/12/17 07:00:44;;;;;;;1.63;1.20;;;10.00;98.20;;;;;;4993489;28;20846;-77
2020/12/17 07:03:12;;;;;;;1.60;1.10;;;10.00;98.20;;;;;;4989742;28;20557;-77
2020/12/17 07:05:39;;;;;;;1.67;1.17;;;10.00;98.20;;;;;;4990457;28;20517;-77
2020/12/17 07:08:05;;;;;;;1.60;1.10;;;10.10;98.20;;;;;;4990742;28;20465;-77
2020/12/17 07:10:33;;;;;;;1.60;1.20;;;10.10;98.20;;;;;;4994032;28;20497;-77
2020/12/17 07:12:59;;;;;;;1.60;1.20;;;10.10;98.20;;;;;;4989451;28;20612;-77
2020/12/17 07:15:31;;;;;;;1.60;1.10;;;10.10;98.20;;;;;;4991106;28;20513;-77
2020/12/17 07:18:19;;;;;;;1.67;1.20;;;10.10;98.20;;;;;;4991146;28;20569;-79
2020/12/17 07:20:50;;;;;;;1.60;1.10;;;10.10;98.20;;;;;;4991385;28;20465;-78
2020/12/17 07:23:17;;;;;;;1.60;1.10;;;10.10;98.20;;;;;;4992236;28;20528;-78
2020/12/17 07:25:44;;;;;;;1.60;1.20;;;10.10;98.20;;;;;;4998833;28;20563;-77
2020/12/17 07:28:14;;;;;;;1.60;1.10;;;10.10;98.20;;;;;;4991311;28;20512;-77
2020/12/17 07:30:51;;;;;;;1.60;1.13;;;10.10;98.20;;;;;;5005039;28;20480;-77
2020/12/17 07:33:44;;;;;;;1.60;1.10;;;10.10;98.20;;;;;;4987955;28;20492;-77
2020/12/17 07:36:12;;;;;;;1.60;1.10;;;10.00;98.20;;;;;;4988561;28;20493;-78
2020/12/17 07:38:40;;;;;;;1.60;1.20;;;10.10;98.20;;;;;;4989015;28;20527;-78
2020/12/17 07:41:21;;;;;;;1.60;1.10;;;10.00;98.20;;;;;;4988539;28;20477;-78
2020/12/17 07:43:48;;;;;;;1.60;1.10;;;10.00;98.20;;;;;;4987823;28;20566;-78
2020/12/17 07:46:33;;;;;;;1.60;1.10;;;10.00;98.20;;;;;;4988865;28;21053;-78
2020/12/17 07:49:02;;;;;;;1.60;1.20;;;10.00;98.20;;;;;;4988977;28;20476;-77
2020/12/17 07:51:35;;;;;;;1.60;1.10;;;10.00;98.20;;;;;;4989575;28;20464;-77
2020/12/17 07:54:06;;;;;;;1.70;1.20;;;10.00;98.20;;;;;;4994225;28;20462;-77
2020/12/17 07:56:32;;;;;;;1.60;1.20;;;10.00;98.20;;;;;;4993820;28;20492;-76
2020/12/17 07:59:08;;;;;;;1.60;1.10;;;10.00;98.20;;;;;;4993477;28;21078;-78
2020/12/17 08:01:34;;;;;;;1.63;1.20;;;10.00;98.20;;;;;;4990426;28;20472;-77
2020/12/17 08:04:02;;;;;;;1.60;1.10;;;10.00;98.20;;;;;;4993704;28;20477;-77
2020/12/17 08:06:29;;;;;;;1.60;1.20;;;10.00;98.20;;;;;;4989666;28;20488;-79
2020/12/17 08:08:58;;;;;;;1.60;1.20;;;10.00;98.20;;;;;;4989653;28;20835;-76
2020/12/17 08:11:25;;;;;;;1.60;1.13;;;10.00;98.20;;;;;;4988379;28;20648;-77
2020/12/17 08:14:03;;;;;;;1.60;1.13;;;9.90;98.20;;;;;;4997507;28;20480;-77
2020/12/17 08:16:30;;;;;;;1.60;1.20;;;9.90;98.20;;;;;;4989829;28;20568;-76
2020/12/17 08:18:58;;;;;;;1.60;1.20;;;9.90;98.20;;;;;;4982685;28;20843;-75
2020/12/17 08:21:26;;;;;;;1.60;1.10;;;9.90;98.20;;;;;;4988690;28;20990;-75
2020/12/17 08:23:53;;;;;;;1.60;1.10;;;9.90;98.20;;;;;;4987925;28;20560;-78
2020/12/17 08:26:22;;;;;;;1.60;1.20;;;9.90;98.20;;;;;;4984155;28;20495;-75
2020/12/17 08:28:49;;;;;;;1.60;1.20;;;9.90;98.20;;;;;;4984577;28;20560;-78
2020/12/17 08:31:20;;;;;;;1.60;1.10;;;9.90;98.20;;;;;;4986533;28;20583;-78
2020/12/17 08:33:48;;;;;;;1.60;1.10;;;9.90;98.20;;;;;;4982320;28;20497;-78
2020/12/17 08:36:16;;;;;;;1.60;1.10;;;9.90;98.20;;;;;;4983113;28;20621;-76
2020/12/17 08:38:55;;;;;;;1.60;1.20;;;9.80;98.20;;;;;;4989733;28;20485;-76
2020/12/17 08:41:26;;;;;;;1.60;1.20;;;9.80;98.20;;;;;;4986516;28;20560;-76
2020/12/17 08:43:54;;;;;;;1.60;1.17;;;9.80;98.20;;;;;;4979412;28;20466;-76
2020/12/17 08:46:22;;;;;;;1.60;1.20;;;9.80;98.20;;;;;;4985754;28;20581;-77
2020/12/17 08:48:50;;;;;;;1.60;1.10;;;9.80;98.20;;;;;;4986816;28;20509;-77
2020/12/17 08:51:18;;;;;;;1.60;1.20;;;9.80;98.20;;;;;;4984636;28;20533;-76
2020/12/17 08:53:45;;;;;;;1.63;1.17;;;9.80;98.20;;;;;;4985260;28;20477;-76
2020/12/17 08:56:15;;;;;;;1.60;1.10;;;9.80;98.20;;;;;;4987474;28;20485;-76
2020/12/17 08:58:44;;;;;;;1.60;1.10;;;9.70;98.20;;;;;;4986410;28;20781;-76
2020/12/17 09:01:15;;;;;;;1.60;1.10;;;9.80;98.20;;;;;;4984454;28;20560;-76
2020/12/17 09:03:46;;;;;;;1.60;1.20;;;9.70;98.20;;;;;;4982072;28;20833;-76
2020/12/17 09:06:13;;;;;;;1.70;1.30;;;9.70;98.20;;;;;;4983070;28;20575;-77
2020/12/17 09:08:39;;;;;;;1.60;1.20;;;9.70;98.20;;;;;;4982920;28;20576;-76
2020/12/17 09:11:06;;;;;;;1.60;1.20;;;9.70;98.20;;;;;;4981070;28;20476;-76
2020/12/17 09:13:33;;;;;;;1.60;1.17;;;9.70;98.20;;;;;;4989650;28;20951;-77
2020/12/17 09:16:01;;;;;;;1.60;1.10;;;9.70;98.20;;;;;;4986766;28;20576;-76
2020/12/17 09:18:29;;;;;;;1.60;1.10;;;9.70;98.20;;;;;;4988389;28;20528;-78
2020/12/17 09:21:10;;;;;;;1.63;1.20;;;9.70;98.20;;;;;;4993381;28;20497;-77
2020/12/17 09:23:37;;;;;;;1.60;1.20;;;9.80;98.20;;;;;;4992331;28;20465;-77
2020/12/17 09:26:14;;;;;;;1.60;1.17;;;9.80;98.20;;;;;;4994661;28;20990;-76
2020/12/17 09:28:58;;;;;;;1.60;1.10;;;9.80;98.20;;;;;;4993702;28;20953;-77
2020/12/17 09:31:29;;;;;;;1.60;1.17;;;9.90;98.20;;;;;;4987298;28;20851;-76
2020/12/17 09:34:06;;;;;;;1.60;1.20;;;9.90;98.20;;;;;;4990633;28;20940;-76
2020/12/17 09:36:33;;;;;;;1.63;1.20;;;9.90;98.20;;;;;;4987265;28;20555;-76
2020/12/17 09:39:00;;;;;;;1.60;1.13;;;9.90;98.20;;;;;;4989875;28;20485;-77
2020/12/17 09:41:27;;;;;;;1.60;1.17;;;9.90;98.20;;;;;;4989124;28;20561;-77
2020/12/17 09:43:55;;;;;;;1.70;1.23;;;10.00;98.20;;;;;;4988992;28;20481;-76
2020/12/17 09:46:21;;;;;;;1.60;1.10;;;10.00;98.20;;;;;;4988508;28;20497;-76
2020/12/17 09:48:48;;;;;;;1.60;1.10;;;10.00;98.20;;;;;;4985832;28;20466;-78
2020/12/17 09:51:14;;;;;;;1.60;1.10;;;10.10;98.20;;;;;;4990223;28;20951;-77
2020/12/17 09:53:42;;;;;;;1.60;1.10;;;10.10;98.20;;;;;;4985011;28;20531;-76
2020/12/17 09:56:10;;;;;;;1.60;1.10;;;10.20;98.20;;;;;;4991802;28;20484;-77
2020/12/17 09:58:36;;;;;;;1.60;1.13;;;10.30;98.20;;;;;;4985603;28;20504;-76
2020/12/17 10:01:05;;;;;;;1.67;1.17;;;10.30;98.20;;;;;;4991215;28;20627;-77
2020/12/17 10:03:31;;;;;;;1.60;1.20;;;10.40;98.20;;;;;;4989710;28;20472;-77
2020/12/17 10:05:58;;;;;;;1.67;1.20;;;10.40;98.20;;;;;;4986271;28;20903;-77
2020/12/17 10:08:24;;;;;;;1.67;1.20;;;10.50;98.20;;;;;;4989124;28;20461;-79
2020/12/17 10:10:51;;;;;;;1.67;1.20;;;10.50;98.20;;;;;;4989070;28;20811;-78
2020/12/17 10:13:18;;;;;;;1.60;1.10;;;10.50;98.20;;;;;;4989899;28;20557;-78
2020/12/17 10:15:44;;;;;;;1.60;1.10;;;10.60;98.20;;;;;;4989089;28;21003;-76
2020/12/17 10:18:12;;;;;;;1.60;1.10;;;10.60;98.20;;;;;;4991408;28;20492;-77
2020/12/17 10:20:38;;;;;;;1.70;1.30;;;10.60;98.20;;;;;;4987991;28;20481;-77
2020/12/17 10:23:05;;;;;;;1.60;1.10;;;10.60;98.20;;;;;;4989058;28;20510;-78
2020/12/17 10:25:32;;;;;;;1.60;1.20;;;10.70;98.20;;;;;;4990613;28;20560;-78
2020/12/17 10:27:59;;;;;;;1.70;1.30;;;10.70;98.20;;;;;;4987930;28;20976;-78
2020/12/17 10:30:26;;;;;;;1.60;1.10;;;10.70;98.20;;;;;;4993406;28;20475;-78
2020/12/17 10:32:53;;;;;;;1.60;1.10;;;10.70;98.20;;;;;;4988514;28;20497;-77
2020/12/17 10:35:20;;;;;;;1.60;1.10;;;10.70;98.20;;;;;;4989004;28;20497;-77
2020/12/17 10:37:47;;;;;;;1.67;1.20;;;10.80;98.20;;;;;;4988443;28;20544;-77
2020/12/17 10:40:13;;;;;;;1.60;1.20;;;10.80;98.20;;;;;;4989788;28;20741;-77
2020/12/17 10:42:40;;;;;;;1.60;1.10;;;10.80;98.20;;;;;;4989889;28;20964;-77
2020/12/17 10:45:08;;;;;;;1.60;1.20;;;10.90;98.20;;;;;;4989105;28;20878;-77
2020/12/17 10:47:35;;;;;;;1.60;1.10;;;11.00;98.20;;;;;;4987808;28;20589;-77
2020/12/17 10:50:01;;;;;;;1.60;1.10;;;11.10;98.20;;;;;;4989941;28;20480;-77
2020/12/17 10:52:29;;;;;;;1.67;1.10;;;11.20;98.20;;;;;;4989599;28;20629;-78
2020/12/17 10:54:55;;;;;;;1.60;1.00;;;11.30;98.20;;;;;;4988299;28;20572;-78
2020/12/17 10:57:21;;;;;;;1.60;1.10;;;11.40;98.20;;;;;;4985782;28;20572;-79
2020/12/17 10:59:48;;;;;;;1.60;1.10;;;11.50;98.20;;;;;;4988516;28;20461;-78
2020/12/17 11:02:15;;;;;;;1.63;1.20;;;11.50;98.20;;;;;;4992373;28;20500;-78
2020/12/17 11:04:42;;;;;;;1.60;1.10;;;11.60;98.20;;;;;;4993097;28;20905;-77
2020/12/17 11:07:08;;;;;;;1.63;1.10;;;11.60;98.20;;;;;;4987387;28;20498;-77
2020/12/17 11:09:35;;;;;;;1.60;1.10;;;11.60;98.20;;;;;;4989503;28;20560;-78
2020/12/17 11:12:02;;;;;;;1.63;1.20;;;11.60;98.20;;;;;;4987328;28;20512;-78
2020/12/17 11:14:28;;;;;;;1.60;1.10;;;11.60;98.20;;;;;;4995416;28;20544;-77
2020/12/17 11:16:55;;;;;;;1.63;1.10;;;11.60;98.20;;;;;;4987623;28;20554;-78
2020/12/17 11:19:21;;;;;;;1.60;1.10;;;11.70;98.20;;;;;;4987758;28;20576;-77
2020/12/17 11:21:47;;;;;;;1.60;1.10;;;11.70;98.20;;;;;;4987703;28;20556;-78
2020/12/17 11:24:14;;;;;;;1.70;1.20;;;11.70;98.20;;;;;;4995258;28;20548;-77
2020/12/17 11:26:43;;;;;;;1.60;1.10;;;11.70;98.20;;;;;;4991072;28;20481;-79
2020/12/17 11:29:10;;;;;;;1.60;1.00;;;11.70;98.20;;;;;;4991013;28;20866;-79
2020/12/17 11:31:36;;;;;;;1.63;1.03;;;11.80;98.20;;;;;;4987231;28;20559;-78
2020/12/17 11:34:03;;;;;;;1.70;1.40;;;11.90;98.20;;;;;;4985858;28;20987;-78
2020/12/17 11:36:29;;;;;;;1.70;1.20;;;11.90;98.20;;;;;;4986924;28;20519;-79
2020/12/17 11:38:56;;;;;;;1.60;1.00;;;12.00;98.20;;;;;;4989158;28;20525;-78
2020/12/17 11:41:22;;;;;;;1.60;1.10;;;12.00;98.20;;;;;;4992821;28;20576;-79
2020/12/17 11:43:49;;;;;;;1.60;1.00;;;12.00;98.20;;;;;;4987911;28;20520;-78
2020/12/17 11:46:18;;;;;;;1.70;1.10;;;12.00;98.20;;;;;;4985134;28;20492;-78
2020/12/17 11:48:45;;;;;;;1.67;1.10;;;12.00;98.20;;;;;;4984733;28;20544;-77
2020/12/17 11:51:14;;;;;;;1.63;1.10;;;12.10;98.20;;;;;;4986186;28;20580;-77
2020/12/17 11:53:41;;;;;;;1.60;1.10;;;12.10;98.20;;;;;;4985548;28;20480;-78
2020/12/17 11:56:10;;;;;;;1.63;1.10;;;12.10;98.20;;;;;;4993690;28;20482;-77
2020/12/17 11:58:36;;;;;;;1.60;1.07;;;12.10;98.20;;;;;;4988383;28;20500;-77
2020/12/17 12:01:04;;;;;;;1.60;1.13;;;12.00;98.20;;;;;;4987533;28;20466;-77
2020/12/17 12:03:30;;;;;;;1.63;1.10;;;12.00;98.20;;;;;;4986356;28;20550;-76
2020/12/17 12:05:57;;;;;;;1.60;1.10;;;12.00;98.20;;;;;;4988111;28;20620;-78
2020/12/17 12:08:23;;;;;;;1.67;1.10;;;12.00;98.20;;;;;;4984810;28;20921;-76
2020/12/17 12:10:50;;;;;;;1.60;1.07;;;12.00;98.20;;;;;;4984110;28;20549;-77
2020/12/17 12:13:17;;;;;;;1.63;1.10;;;12.00;98.20;;;;;;4985883;28;20472;-76
2020/12/17 12:15:43;;;;;;;1.70;1.20;;;12.00;98.20;;;;;;4987521;28;20991;-76
2020/12/17 12:18:10;;;;;;;1.60;1.00;;;12.00;98.20;;;;;;4983191;28;21027;-77
2020/12/17 12:20:38;;;;;;;1.70;1.10;;;12.00;98.20;;;;;;4986758;28;20493;-77
2020/12/17 12:23:05;;;;;;;1.60;1.10;;;12.00;98.20;;;;;;4988323;28;20979;-76
2020/12/17 12:25:31;;;;;;;1.60;1.10;;;12.00;98.20;;;;;;4991073;28;20567;-77
2020/12/17 12:27:58;;;;;;;1.60;1.10;;;12.00;98.20;;;;;;4988932;28;20469;-77
2020/12/17 12:30:24;;;;;;;1.63;1.10;;;12.00;98.20;;;;;;4991000;28;20493;-78
2020/12/17 12:32:51;;;;;;;1.63;1.10;;;12.00;98.20;;;;;;4984418;28;21012;-76
2020/12/17 12:35:19;;;;;;;1.60;1.10;;;12.00;98.20;;;;;;4985135;28;20601;-78
2020/12/17 12:37:46;;;;;;;1.60;1.10;;;12.00;98.20;;;;;;4979791;28;20592;-78
2020/12/17 12:40:13;;;;;;;1.60;1.10;;;12.00;98.20;;;;;;4981566;28;20469;-76
2020/12/17 12:42:39;;;;;;;1.60;1.10;;;11.90;98.20;;;;;;4982611;28;20764;-77
2020/12/17 12:45:05;;;;;;;1.60;1.13;;;11.90;98.20;;;;;;4992472;28;20571;-78
2020/12/17 12:47:32;;;;;;;1.70;1.20;;;11.90;98.20;;;;;;4988701;28;20930;-79
2020/12/17 12:49:59;;;;;;;1.60;1.00;;;11.80;98.20;;;;;;4985907;28;20552;-78
2020/12/17 12:52:26;;;;;;;1.60;1.10;;;11.80;98.20;;;;;;4987542;28;20495;-78
2020/12/17 12:54:52;;;;;;;1.60;1.00;;;11.80;98.20;;;;;;4993600;28;20599;-77
2020/12/17 12:57:19;;;;;;;1.63;1.10;;;11.90;98.20;;;;;;4983831;28;20490;-78
2020/12/17 12:59:45;;;;;;;1.63;1.10;;;11.90;98.20;;;;;;4989010;28;20469;-78
2020/12/17 13:02:12;;;;;;;1.60;1.10;;;11.80;98.20;;;;;;4988870;28;20901;-76
2020/12/17 13:04:39;;;;;;;1.60;1.00;;;11.80;98.20;;;;;;4987424;28;20478;-79
2020/12/17 13:07:06;;;;;;;1.60;1.10;;;11.80;98.20;;;;;;4979139;28;20500;-78
2020/12/17 13:09:33;;;;;;;1.60;1.00;;;11.80;98.20;;;;;;4985377;28;20473;-78